Time;durP1;ratioP1;P1;durP2;ratioP2;P2;SDS_P1;SDS_P2;PMS_P1;PMS_P2;Temp;Humidity;BMP_temperature;BMP_pressure;BME280_temperature;BME280_humidity;BME280_pressure;Samples;Min_cycle;Max_cycle;Signal;HPM_P1;HPM_P2
2022/01/15 00:00:51;;;;;;;6.77;3.40;;;;;;;3.79;100.00;102194.84;5071654;28;20178;-75
2022/01/15 00:03:17;;;;;;;2.87;2.37;;;;;;;3.79;100.00;102192.16;5072964;28;20505;-74
2022/01/15 00:05:42;;;;;;;4.03;3.63;;;;;;;3.78;100.00;102185.09;5071316;28;20848;-74
2022/01/15 00:08:08;;;;;;;3.27;2.97;;;;;;;3.79;100.00;102202.13;5071516;28;20560;-74
2022/01/15 00:10:34;;;;;;;3.60;3.30;;;;;;;3.78;100.00;102195.91;5072784;28;20650;-74
2022/01/15 00:13:01;;;;;;;2.60;2.33;;;;;;;3.79;100.00;102191.31;5073042;28;20170;-74
2022/01/15 00:15:31;;;;;;;1.70;1.50;;;;;;;3.77;100.00;102185.31;5072608;28;20171;-74
2022/01/15 00:20:23;;;;;;;2.07;1.97;;;;;;;3.77;100.00;102193.44;5072806;28;20171;-73
2022/01/15 00:22:50;;;;;;;1.67;1.57;;;;;;;3.76;100.00;102186.34;5072540;28;20270;-74
2022/01/15 00:25:18;;;;;;;4.93;2.57;;;;;;;3.72;100.00;102179.72;5072492;28;20251;-74
2022/01/15 00:27:44;;;;;;;2.07;1.77;;;;;;;3.74;100.00;102185.75;5071264;28;20174;-74
2022/01/15 00:30:10;;;;;;;1.47;1.37;;;;;;;3.72;100.00;102172.44;5071287;28;20181;-74
2022/01/15 00:32:35;;;;;;;2.90;2.67;;;;;;;3.72;100.00;102168.91;5071333;28;20223;-73
2022/01/15 00:35:01;;;;;;;3.50;2.50;;;;;;;3.70;100.00;102176.44;5071022;28;20214;-75
2022/01/15 00:37:31;;;;;;;3.03;2.63;;;;;;;3.71;100.00;102178.06;5071155;28;20224;-75
2022/01/15 00:40:00;;;;;;;2.27;1.70;;;;;;;3.69;100.00;102172.91;5072453;28;20162;-73
2022/01/15 00:42:27;;;;;;;7.40;3.07;;;;;;;3.69;100.00;102183.72;5071008;28;20166;-73
2022/01/15 00:44:54;;;;;;;2.90;2.67;;;;;;;3.71;100.00;102184.31;5072172;28;20281;-74
2022/01/15 00:47:21;;;;;;;2.20;2.00;;;;;;;3.71;100.00;102175.38;5072313;28;20179;-74
2022/01/15 00:49:46;;;;;;;3.43;3.10;;;;;;;3.70;100.00;102171.84;5071183;28;20265;-74
2022/01/15 00:52:12;;;;;;;4.77;3.60;;;;;;;3.74;100.00;102177.63;5070742;28;20266;-74
2022/01/15 00:54:37;;;;;;;1.73;1.63;;;;;;;3.78;100.00;102184.25;5071979;28;20175;-74
2022/01/15 00:57:03;;;;;;;1.43;1.33;;;;;;;3.74;100.00;102175.75;5070712;28;20307;-73
2022/01/15 00:59:28;;;;;;;4.87;3.00;;;;;;;3.73;100.00;102175.97;5072187;28;20249;-74
2022/01/15 01:01:53;;;;;;;5.57;5.03;;;;;;;3.74;100.00;102180.34;5070724;28;20189;-74
2022/01/15 01:04:19;;;;;;;2.43;2.27;;;;;;;3.75;100.00;102168.47;5070709;28;20666;-74
2022/01/15 01:06:45;;;;;;;4.53;3.80;;;;;;;3.73;100.00;102155.19;5072018;28;20185;-74
2022/01/15 01:09:11;;;;;;;3.87;3.37;;;;;;;3.76;100.00;102157.47;5071923;28;20181;-74
2022/01/15 01:11:53;;;;;;;4.07;3.63;;;;;;;3.75;100.00;102155.78;5070642;28;20182;-74
2022/01/15 01:24:59;;;;;;;1.33;1.17;;;;;;;3.71;100.00;102154.59;5081608;28;20210;-74
2022/01/15 01:27:30;;;;;;;4.47;4.07;;;;;;;3.70;100.00;102146.69;5077311;28;20291;-74
2022/01/15 01:33:18;;;;;;;5.33;4.80;;;;;;;3.73;100.00;102148.94;5071510;28;20216;-73
2022/01/15 01:35:18;;;;;;;5.30;4.90;;;;;;;3.73;100.00;102146.25;5068181;28;20186;-73
2022/01/15 01:37:48;;;;;;;7.17;5.23;;;;;;;3.74;100.00;102139.78;5071234;28;20193;-74
2022/01/15 01:42:43;;;;;;;9.50;5.33;;;;;;;3.75;100.00;102142.25;5071253;28;20171;-74
2022/01/15 01:45:13;;;;;;;6.60;6.00;;;;;;;3.74;100.00;102148.72;5070892;28;20203;-74
2022/01/15 01:47:41;;;;;;;8.33;6.63;;;;;;;3.75;100.00;102149.53;5071063;28;20167;-74
2022/01/15 01:50:29;;;;;;;6.33;5.23;;;;;;;3.74;100.00;102154.13;5071016;28;20246;-74
2022/01/15 01:52:57;;;;;;;7.53;6.60;;;;;;;3.75;100.00;102144.97;5070636;28;20205;-74
2022/01/15 01:55:25;;;;;;;3.07;2.80;;;;;;;3.76;100.00;102137.69;5070949;28;20619;-72
2022/01/15 01:57:53;;;;;;;8.70;6.23;;;;;;;3.77;100.00;102133.97;5070831;28;20169;-72
2022/01/15 02:00:20;;;;;;;5.37;4.43;;;;;;;3.75;100.00;102138.72;5069611;28;20283;-74
2022/01/15 02:02:46;;;;;;;7.43;5.40;;;;;;;3.73;100.00;102130.84;5069050;28;20202;-74
2022/01/15 02:05:12;;;;;;;6.93;5.70;;;;;;;3.74;100.00;102132.50;5070673;28;20197;-74
2022/01/15 02:07:43;;;;;;;11.57;8.60;;;;;;;3.76;100.00;102137.69;5069656;28;20167;-74
2022/01/15 02:10:10;;;;;;;5.07;4.67;;;;;;;3.75;100.00;102117.94;5069539;28;20587;-73
2022/01/15 02:12:36;;;;;;;6.10;5.43;;;;;;;3.72;100.00;102123.78;5070848;28;20193;-74
2022/01/15 02:15:08;;;;;;;7.47;6.77;;;;;;;3.73;100.00;102119.22;5070648;28;20202;-74
2022/01/15 02:17:34;;;;;;;8.03;6.43;;;;;;;3.72;100.00;102126.50;5070450;28;20181;-74
2022/01/15 02:20:21;;;;;;;8.00;6.37;;;;;;;3.75;100.00;102122.53;5070703;28;20174;-74
2022/01/15 02:25:54;;;;;;;8.60;7.67;;;;;;;3.76;100.00;102108.81;5070558;28;20202;-74
2022/01/15 02:28:24;;;;;;;4.00;3.33;;;;;;;3.76;100.00;102116.06;5070639;28;20242;-74
2022/01/15 02:30:58;;;;;;;4.20;3.90;;;;;;;3.74;100.00;102110.88;5070887;28;20171;-73
2022/01/15 02:33:25;;;;;;;6.83;6.13;;;;;;;3.73;100.00;102111.94;5070468;28;20229;-74
2022/01/15 02:35:51;;;;;;;9.23;7.03;;;;;;;3.74;100.00;102118.16;5070477;28;20183;-74
2022/01/15 02:38:16;;;;;;;7.17;5.33;;;;;;;3.75;100.00;102103.59;5069151;28;20179;-74
2022/01/15 02:40:42;;;;;;;5.80;5.30;;;;;;;3.74;100.00;102110.88;5070489;28;20538;-74
2022/01/15 02:43:12;;;;;;;6.13;5.63;;;;;;;3.74;100.00;102105.47;5070466;28;20193;-74
2022/01/15 02:45:42;;;;;;;7.80;6.83;;;;;;;3.76;100.00;102102.53;5070608;28;20186;-74
2022/01/15 02:48:14;;;;;;;10.83;6.53;;;;;;;3.76;100.00;102091.72;5069233;28;20196;-74
2022/01/15 02:50:41;;;;;;;3.80;3.50;;;;;;;3.77;100.00;102093.41;5069018;28;20174;-73
2022/01/15 02:53:07;;;;;;;5.53;4.00;;;;;;;3.74;100.00;102089.25;5070314;28;20175;-74
2022/01/15 02:55:33;;;;;;;5.53;5.00;;;;;;;3.74;100.00;102099.25;5070116;28;20163;-74
2022/01/15 02:57:58;;;;;;;7.40;6.70;;;;;;;3.74;100.00;102085.72;5070187;28;20235;-74
2022/01/15 03:00:25;;;;;;;8.37;4.93;;;;;;;3.73;100.00;102084.06;5070273;28;20246;-73
2022/01/15 03:02:50;;;;;;;7.83;5.67;;;;;;;3.73;100.00;102078.66;5069016;28;20220;-73
2022/01/15 03:05:16;;;;;;;7.67;6.87;;;;;;;3.75;100.00;102071.16;5070008;28;20230;-73
2022/01/15 03:07:42;;;;;;;6.37;5.53;;;;;;;3.75;100.00;102074.69;5069969;28;20531;-73
2022/01/15 03:10:10;;;;;;;5.83;5.33;;;;;;;3.75;100.00;102071.16;5070218;28;20181;-73
2022/01/15 03:12:36;;;;;;;4.80;4.00;;;;;;;3.74;100.00;102080.31;5068881;28;20179;-73
2022/01/15 03:15:05;;;;;;;3.87;2.50;;;;;;;3.72;100.00;102067.03;5070386;28;20175;-73
2022/01/15 03:17:31;;;;;;;6.47;5.07;;;;;;;3.73;100.00;102070.56;5073907;28;20531;-74
2022/01/15 03:19:57;;;;;;;5.17;4.53;;;;;;;3.74;100.00;102064.09;5072349;28;20178;-74
2022/01/15 03:22:22;;;;;;;5.90;5.10;;;;;;;3.74;100.00;102061.41;5073881;28;20232;-73
2022/01/15 03:24:49;;;;;;;7.97;3.80;;;;;;;3.74;100.00;102066.81;5073764;28;20202;-73
2022/01/15 03:27:14;;;;;;;7.77;3.93;;;;;;;3.73;100.00;102070.56;5072365;28;20543;-73
2022/01/15 03:29:40;;;;;;;6.40;5.80;;;;;;;3.73;100.00;102070.56;5073960;28;20174;-73
2022/01/15 03:32:06;;;;;;;5.97;4.83;;;;;;;3.75;100.00;102068.47;5072274;28;20178;-73
2022/01/15 03:34:31;;;;;;;6.40;5.27;;;;;;;3.73;100.00;102067.88;5073358;28;20187;-74
2022/01/15 03:36:57;;;;;;;3.63;3.17;;;;;;;3.73;100.00;102059.75;5073310;28;20179;-73
2022/01/15 03:39:22;;;;;;;6.60;5.90;;;;;;;3.72;100.00;102058.94;5072188;28;20273;-73
2022/01/15 03:41:48;;;;;;;8.13;4.50;;;;;;;3.72;100.00;102058.94;5073460;28;20614;-73
2022/01/15 03:44:13;;;;;;;3.13;2.83;;;;;;;3.73;100.00;102060.56;5071907;28;20185;-74
2022/01/15 03:46:38;;;;;;;2.53;2.27;;;;;;;3.73;100.00;102047.06;5071967;28;20178;-73
2022/01/15 03:49:04;;;;;;;2.77;2.57;;;;;;;3.70;100.00;102044.81;5072962;28;20218;-73
2022/01/15 03:51:29;;;;;;;5.77;5.17;;;;;;;3.69;100.00;102040.47;5073192;28;20183;-73
2022/01/15 03:53:55;;;;;;;2.70;2.40;;;;;;;3.69;100.00;102040.47;5071843;28;20178;-74
2022/01/15 03:56:20;;;;;;;3.63;3.33;;;;;;;3.70;100.00;102052.09;5072905;28;20182;-74
2022/01/15 03:58:45;;;;;;;5.33;4.10;;;;;;;3.70;100.00;102046.69;5072981;28;20174;-73
2022/01/15 04:01:11;;;;;;;4.67;4.27;;;;;;;3.70;100.00;102060.22;5073041;28;20182;-74
2022/01/15 04:03:38;;;;;;;7.23;4.20;;;;;;;3.70;100.00;102044.81;5072012;28;20190;-74
2022/01/15 04:06:04;;;;;;;4.83;4.40;;;;;;;3.70;100.00;102044.81;5071204;28;20684;-73
2022/01/15 04:08:30;;;;;;;5.37;4.43;;;;;;;3.71;100.00;102041.06;5072903;28;20178;-73
2022/01/15 04:10:56;;;;;;;8.20;3.67;;;;;;;3.71;100.00;102038.34;5071597;28;20179;-75
2022/01/15 04:13:21;;;;;;;5.50;4.10;;;;;;;3.72;100.00;102036.47;5072800;28;20266;-73
2022/01/15 04:15:53;;;;;;;3.93;3.63;;;;;;;3.72;100.00;102029.19;5073020;28;20178;-74
2022/01/15 04:18:21;;;;;;;5.80;2.20;;;;;;;3.71;100.00;102022.13;5071116;28;20178;-73
2022/01/15 04:20:47;;;;;;;6.37;5.00;;;;;;;3.72;100.00;102028.38;5072738;28;20170;-74
2022/01/15 04:23:12;;;;;;;5.73;4.93;;;;;;;3.73;100.00;102027.31;5072504;28;20194;-74
2022/01/15 04:25:37;;;;;;;6.33;5.67;;;;;;;3.73;100.00;102028.16;5072135;28;20292;-73
2022/01/15 04:28:08;;;;;;;5.03;4.57;;;;;;;3.75;100.00;102019.81;5072344;28;20222;-73
2022/01/15 04:30:34;;;;;;;4.97;4.07;;;;;;;3.74;100.00;102023.56;5072567;28;20674;-73
2022/01/15 04:33:00;;;;;;;4.10;3.30;;;;;;;3.75;100.00;102019.81;5072410;28;20182;-73
2022/01/15 04:35:25;;;;;;;8.47;6.40;;;;;;;3.75;100.00;102026.03;5072363;28;20175;-73
2022/01/15 04:37:55;;;;;;;6.43;5.03;;;;;;;3.78;100.00;102031.00;5071040;28;20182;-74
2022/01/15 04:40:20;;;;;;;11.13;7.00;;;;;;;3.79;100.00;102032.66;5072374;28;20258;-74
2022/01/15 04:42:45;;;;;;;7.47;5.87;;;;;;;3.79;100.00;102032.66;5070910;28;20274;-74
2022/01/15 04:45:12;;;;;;;4.70;4.30;;;;;;;3.78;100.00;102031.00;5071945;28;20614;-73
2022/01/15 04:47:38;;;;;;;4.43;4.03;;;;;;;3.77;100.00;102034.78;5071939;28;20174;-73
2022/01/15 04:50:10;;;;;;;7.10;6.23;;;;;;;3.78;100.00;102035.59;5072041;28;20182;-74
2022/01/15 04:52:38;;;;;;;8.23;6.03;;;;;;;3.76;100.00;102027.72;5071971;28;20639;-74
2022/01/15 04:55:04;;;;;;;5.20;4.37;;;;;;;3.76;100.00;102033.13;5070369;28;20237;-73
2022/01/15 04:57:29;;;;;;;16.03;5.93;;;;;;;3.76;100.00;102043.94;5070653;28;20182;-74
2022/01/15 04:59:55;;;;;;;10.00;6.60;;;;;;;3.76;100.00;102043.06;5070438;28;20705;-73
2022/01/15 05:02:20;;;;;;;9.30;6.40;;;;;;;3.78;100.00;102032.88;5072277;28;20185;-74
2022/01/15 05:04:45;;;;;;;11.77;7.13;;;;;;;3.78;100.00;102036.41;5070366;28;20234;-73
2022/01/15 05:07:11;;;;;;;10.43;6.43;;;;;;;3.79;100.00;102038.06;5071881;28;20179;-73
2022/01/15 05:09:36;;;;;;;10.47;4.97;;;;;;;3.79;100.00;102032.66;5070424;28;20198;-73
2022/01/15 05:12:09;;;;;;;6.97;6.13;;;;;;;3.77;100.00;102033.94;5071662;28;20171;-74
2022/01/15 05:14:35;;;;;;;12.20;6.40;;;;;;;3.77;100.00;102045.59;5071454;28;20175;-74
2022/01/15 05:17:02;;;;;;;7.90;6.43;;;;;;;3.79;100.00;102032.66;5070028;28;20178;-73
2022/01/15 05:19:27;;;;;;;10.23;5.07;;;;;;;3.79;100.00;102032.66;5071491;28;20272;-73
2022/01/15 05:21:55;;;;;;;7.03;6.23;;;;;;;3.80;100.00;102044.28;5071512;28;20678;-73
2022/01/15 05:24:21;;;;;;;13.17;6.63;;;;;;;3.77;100.00;102033.94;5069992;28;20267;-73
2022/01/15 05:26:46;;;;;;;4.50;4.00;;;;;;;3.77;100.00;102026.66;5071201;28;20225;-75
2022/01/15 05:29:11;;;;;;;12.00;5.63;;;;;;;3.75;100.00;102031.44;5071212;28;20179;-74
2022/01/15 05:31:37;;;;;;;5.50;4.73;;;;;;;3.73;100.00;102028.16;5070012;28;20174;-74
2022/01/15 05:34:02;;;;;;;5.97;5.10;;;;;;;3.73;100.00;102038.94;5071406;28;20194;-73
2022/01/15 05:36:28;;;;;;;5.53;4.73;;;;;;;3.73;100.00;102024.63;5069844;28;20193;-73
2022/01/15 05:38:53;;;;;;;10.00;6.60;;;;;;;3.73;100.00;102033.53;5070219;28;20662;-73
2022/01/15 05:41:18;;;;;;;19.97;7.23;;;;;;;3.76;100.00;102032.25;5071046;28;20502;-73
2022/01/15 05:43:44;;;;;;;4.13;3.73;;;;;;;3.75;100.00;102038.72;5070822;28;20177;-73
2022/01/15 05:46:12;;;;;;;6.87;5.80;;;;;;;3.73;100.00;102043.53;5070779;28;20233;-74
2022/01/15 05:48:37;;;;;;;9.90;6.33;;;;;;;3.75;100.00;102044.13;5070940;28;20581;-74
2022/01/15 05:51:03;;;;;;;7.60;6.17;;;;;;;3.76;100.00;102043.94;5069626;28;20171;-74
2022/01/15 05:53:28;;;;;;;12.90;4.93;;;;;;;3.75;100.00;102031.44;5069736;28;20178;-74
2022/01/15 05:55:54;;;;;;;11.63;7.03;;;;;;;3.73;100.00;102028.16;5069414;28;20178;-73
2022/01/15 05:58:19;;;;;;;9.73;6.87;;;;;;;3.72;100.00;102034.59;5069453;28;20225;-73
2022/01/15 06:00:44;;;;;;;8.30;6.83;;;;;;;3.70;100.00;102036.72;5071039;28;20175;-74
2022/01/15 06:03:10;;;;;;;6.63;4.20;;;;;;;3.70;100.00;102033.19;5069720;28;20660;-73
2022/01/15 06:05:35;;;;;;;6.83;6.23;;;;;;;3.70;100.00;102035.88;5069368;28;20244;-74
2022/01/15 06:08:00;;;;;;;7.43;5.20;;;;;;;3.67;100.00;102025.53;5070771;28;20178;-73
2022/01/15 06:10:26;;;;;;;3.47;2.40;;;;;;;3.67;100.00;102028.25;5070741;28;20645;-74
2022/01/15 06:12:51;;;;;;;7.40;6.17;;;;;;;3.66;100.00;102015.78;5070561;28;20194;-74
2022/01/15 06:15:16;;;;;;;6.97;5.50;;;;;;;3.66;100.00;102015.78;5069265;28;20189;-74
2022/01/15 06:17:43;;;;;;;8.50;5.80;;;;;;;3.67;100.00;102015.56;5070845;28;20176;-74
2022/01/15 06:20:10;;;;;;;13.13;7.80;;;;;;;3.64;100.00;102012.47;5070539;28;20593;-73
2022/01/15 06:22:36;;;;;;;9.33;7.20;;;;;;;3.66;100.00;102011.19;5070431;28;20193;-73
2022/01/15 06:25:03;;;;;;;8.37;6.57;;;;;;;3.69;100.00;102005.34;5070367;28;20209;-74
2022/01/15 06:27:32;;;;;;;7.07;5.30;;;;;;;3.68;100.00;102008.25;5069091;28;20214;-74
2022/01/15 06:29:58;;;;;;;9.77;6.77;;;;;;;3.64;100.00;102005.19;5070466;28;20174;-74
2022/01/15 06:32:28;;;;;;;10.37;5.70;;;;;;;3.63;100.00;102008.13;5069375;28;20661;-74
2022/01/15 06:34:54;;;;;;;9.57;4.50;;;;;;;3.60;100.00;102001.28;5070310;28;20178;-74
2022/01/15 06:37:20;;;;;;;4.97;4.47;;;;;;;3.57;100.00;101999.03;5069003;28;20189;-74
2022/01/15 06:39:46;;;;;;;7.57;5.77;;;;;;;3.55;100.00;102009.25;5069017;28;20258;-74
2022/01/15 06:42:12;;;;;;;7.13;6.17;;;;;;;3.55;100.00;102012.78;5068919;28;20166;-74
2022/01/15 06:44:37;;;;;;;5.10;4.60;;;;;;;3.57;100.00;102005.25;5070116;28;20228;-73
2022/01/15 06:47:03;;;;;;;10.53;6.07;;;;;;;3.57;100.00;102016.06;5069095;28;20193;-74
2022/01/15 06:49:28;;;;;;;7.83;7.03;;;;;;;3.57;100.00;102010.66;5070062;28;20213;-74
2022/01/15 06:51:54;;;;;;;8.70;6.90;;;;;;;3.57;100.00;102007.13;5074379;28;20171;-73
2022/01/15 06:54:19;;;;;;;12.07;8.10;;;;;;;3.60;100.00;102025.59;5074266;28;20174;-74
2022/01/15 06:56:44;;;;;;;9.83;7.33;;;;;;;3.63;100.00;102018.94;5072515;28;20712;-74
2022/01/15 06:59:10;;;;;;;8.77;6.40;;;;;;;3.62;100.00;102022.66;5072819;28;20388;-73
2022/01/15 07:01:35;;;;;;;13.60;9.43;;;;;;;3.61;100.00;102018.31;5072652;28;20186;-75
2022/01/15 07:04:00;;;;;;;8.27;6.27;;;;;;;3.60;100.00;102020.19;5072725;28;20179;-75
2022/01/15 07:06:26;;;;;;;10.53;7.40;;;;;;;3.57;100.00;102023.34;5073615;28;20191;-74
2022/01/15 07:08:51;;;;;;;10.07;7.20;;;;;;;3.56;100.00;102019.81;5073942;28;20384;-74
2022/01/15 07:11:16;;;;;;;7.80;6.53;;;;;;;3.58;100.00;102025.81;5072429;28;20171;-74
2022/01/15 07:13:42;;;;;;;10.83;7.53;;;;;;;3.58;100.00;102028.53;5073866;28;20174;-74
2022/01/15 07:16:07;;;;;;;8.73;7.33;;;;;;;3.58;100.00;102025.81;5073517;28;20481;-74
2022/01/15 07:18:33;;;;;;;7.73;6.43;;;;;;;3.58;100.00;102025.81;5072304;28;20178;-74
2022/01/15 07:20:58;;;;;;;8.80;7.93;;;;;;;3.58;100.00;102014.19;5073581;28;20198;-74
2022/01/15 07:23:24;;;;;;;10.47;8.97;;;;;;;3.58;100.00;102025.81;5073644;28;20193;-73
2022/01/15 07:25:49;;;;;;;14.30;10.23;;;;;;;3.58;100.00;102030.41;5073354;28;20689;-73
2022/01/15 07:28:17;;;;;;;12.83;9.40;;;;;;;3.63;100.00;102027.88;5072066;28;20182;-75
2022/01/15 07:30:43;;;;;;;13.90;10.17;;;;;;;3.63;100.00;102027.03;5072366;28;20183;-73
2022/01/15 07:33:08;;;;;;;15.37;9.30;;;;;;;3.61;100.00;102021.00;5073533;28;20227;-74
2022/01/15 07:35:33;;;;;;;11.33;7.30;;;;;;;3.66;100.00;102010.38;5073404;28;20181;-74
2022/01/15 07:37:59;;;;;;;16.60;8.93;;;;;;;3.68;100.00;102011.78;5072092;28;20213;-73
2022/01/15 07:40:24;;;;;;;19.63;8.70;;;;;;;3.68;100.00;102003.69;5073257;28;20171;-74
2022/01/15 07:42:49;;;;;;;17.03;10.10;;;;;;;3.62;100.00;102004.59;5073371;28;20174;-74
2022/01/15 07:45:17;;;;;;;11.93;8.07;;;;;;;3.49;100.00;102005.59;5073035;28;20228;-74
2022/01/15 07:47:43;;;;;;;12.30;9.33;;;;;;;3.48;100.00;102001.22;5071949;28;20178;-74
2022/01/15 07:50:17;;;;;;;15.33;10.03;;;;;;;3.49;100.00;102000.19;5071813;28;20175;-73
2022/01/15 07:52:43;;;;;;;11.07;8.50;;;;;;;3.52;100.00;102010.53;5073173;28;20220;-73
2022/01/15 07:55:09;;;;;;;18.63;10.80;;;;;;;3.66;100.00;102000.38;5073311;28;20206;-75
2022/01/15 07:57:35;;;;;;;13.80;9.77;;;;;;;3.86;100.00;102006.34;5071609;28;20231;-74
2022/01/15 08:00:00;;;;;;;15.80;9.23;;;;;;;3.95;100.00;102009.56;5073026;28;20179;-73
2022/01/15 08:02:26;;;;;;;15.17;9.23;;;;;;;3.99;100.00;102018.88;5070778;28;20796;-73
2022/01/15 08:04:51;;;;;;;13.77;8.87;;;;;;;3.85;100.00;102015.53;5072785;28;20194;-74
2022/01/15 08:07:18;;;;;;;9.93;7.87;;;;;;;3.71;100.00;102022.13;5072874;28;20240;-73
2022/01/15 08:09:44;;;;;;;13.03;8.97;;;;;;;3.63;100.00;102008.13;5072830;28;20178;-74
2022/01/15 08:12:09;;;;;;;16.73;10.03;;;;;;;3.65;100.00;102000.63;5072776;28;20171;-73
2022/01/15 08:14:35;;;;;;;11.30;8.73;;;;;;;3.67;100.00;101998.50;5072698;28;20681;-74
2022/01/15 08:17:00;;;;;;;17.77;9.07;;;;;;;3.78;100.00;102001.28;5072498;28;20173;-73
2022/01/15 08:19:25;;;;;;;12.40;9.10;;;;;;;3.99;100.00;102001.81;5071518;28;20175;-74
2022/01/15 08:21:51;;;;;;;13.43;9.27;;;;;;;3.86;100.00;102008.22;5071618;28;20189;-73
2022/01/15 08:24:16;;;;;;;19.23;9.07;;;;;;;4.05;100.00;102007.16;5073293;28;20242;-73
2022/01/15 08:26:41;;;;;;;14.37;9.93;;;;;;;4.21;100.00;102007.56;5083714;28;20291;-73
2022/01/15 08:29:07;;;;;;;16.37;11.70;;;;;;;4.34;100.00;102007.34;5076319;28;20174;-73
2022/01/15 08:31:32;;;;;;;13.57;9.47;;;;;;;4.44;100.00;102013.03;5074019;28;20174;-73
2022/01/15 08:33:58;;;;;;;13.23;9.37;;;;;;;4.50;100.00;102014.00;5073154;28;20174;-73
2022/01/15 08:36:24;;;;;;;15.40;9.57;;;;;;;4.50;100.00;102014.00;5072439;28;20198;-73
2022/01/15 08:38:50;;;;;;;12.93;9.77;;;;;;;4.53;100.00;102024.34;5072257;28;20171;-74
2022/01/15 08:41:15;;;;;;;12.90;9.10;;;;;;;4.58;100.00;102016.34;5072323;28;20178;-74
2022/01/15 08:43:42;;;;;;;14.07;10.20;;;;;;;4.62;100.00;102012.94;5071085;28;20875;-73
2022/01/15 08:46:08;;;;;;;10.10;9.10;;;;;;;4.72;100.00;102010.47;5070842;28;20213;-74
2022/01/15 08:48:34;;;;;;;10.57;8.07;;;;;;;4.71;100.00;102019.66;5072223;28;20622;-73
2022/01/15 08:50:59;;;;;;;9.00;7.73;;;;;;;4.74;100.00;102016.47;5072253;28;20225;-74
2022/01/15 08:53:24;;;;;;;10.27;9.10;;;;;;;4.72;100.00;102012.38;5070656;28;20186;-73
2022/01/15 08:55:50;;;;;;;11.57;8.53;;;;;;;4.62;100.00;102012.09;5081032;28;20174;-73
2022/01/15 08:58:16;;;;;;;10.30;7.87;;;;;;;4.55;100.00;102008.69;5083614;28;20184;-73
2022/01/15 09:00:41;;;;;;;12.87;9.20;;;;;;;4.57;100.00;102012.81;5073682;28;20182;-73
2022/01/15 09:03:07;;;;;;;14.63;8.47;;;;;;;4.51;100.00;102007.53;5070667;28;20186;-73
2022/01/15 09:05:34;;;;;;;10.60;5.87;;;;;;;4.37;100.00;102013.13;5070405;28;20217;-73
2022/01/15 09:08:01;;;;;;;7.97;6.57;;;;;;;4.33;100.00;102002.97;5071538;28;20178;-73
2022/01/15 09:10:26;;;;;;;9.43;7.70;;;;;;;4.34;100.00;102001.94;5070423;28;20540;-74
2022/01/15 09:12:51;;;;;;;9.33;7.30;;;;;;;4.34;100.00;102010.03;5071577;28;20171;-73
2022/01/15 09:15:18;;;;;;;11.37;9.17;;;;;;;4.21;100.00;102015.69;5070250;28;20209;-73
2022/01/15 09:17:43;;;;;;;12.13;9.80;;;;;;;4.15;100.00;102014.69;5071547;28;20178;-73
2022/01/15 09:20:10;;;;;;;11.07;9.63;;;;;;;4.20;100.00;102005.91;5070086;28;20655;-73
2022/01/15 09:22:37;;;;;;;13.00;10.63;;;;;;;4.19;100.00;102013.19;5071238;28;20220;-73
2022/01/15 09:25:04;;;;;;;15.60;10.93;;;;;;;4.22;100.00;102014.63;5069908;28;20233;-73
2022/01/15 09:30:15;;;;;;;13.77;10.83;;;;;;;4.42;100.00;102010.56;5071687;28;20173;-73
2022/01/15 09:32:43;;;;;;;14.77;10.37;;;;;;;4.69;100.00;102010.13;5071237;28;20197;-73
2022/01/15 09:35:09;;;;;;;13.30;11.37;;;;;;;4.67;100.00;102013.06;5071103;28;20190;-74
2022/01/15 09:37:35;;;;;;;13.30;9.30;;;;;;;4.84;100.00;102012.38;5071075;28;20602;-74
2022/01/15 09:40:00;;;;;;;12.13;9.90;;;;;;;4.82;100.00;102006.38;5071183;28;20625;-74
2022/01/15 09:42:26;;;;;;;13.23;11.37;;;;;;;4.65;100.00;102006.25;5069881;28;20179;-74
2022/01/15 09:44:52;;;;;;;14.37;11.03;;;;;;;4.39;100.00;102002.06;5070783;28;20194;-75
2022/01/15 09:47:21;;;;;;;13.70;11.23;;;;;;;4.25;100.00;102000.63;5069737;28;20197;-74
2022/01/15 09:49:47;;;;;;;16.60;11.07;;;;;;;4.36;100.00;102002.53;5070508;28;20189;-74
2022/01/15 09:52:13;;;;;;;14.60;11.70;;;;;;;4.52;100.00;102001.06;5071063;28;20205;-74
2022/01/15 09:54:39;;;;;;;17.20;12.20;;;;;;;4.52;100.00;102011.88;5069560;28;20175;-73
2022/01/15 09:57:05;;;;;;;12.37;10.87;;;;;;;4.67;100.00;102002.25;5069471;28;20178;-73
2022/01/15 09:59:31;;;;;;;13.27;9.90;;;;;;;4.86;100.00;102012.97;5070857;28;20274;-74
2022/01/15 10:02:01;;;;;;;9.30;8.20;;;;;;;4.84;100.00;102005.09;5070727;28;20174;-74
2022/01/15 10:04:29;;;;;;;11.57;8.87;;;;;;;4.77;100.00;101988.97;5070844;28;20718;-72
2022/01/15 10:07:16;;;;;;;11.27;9.47;;;;;;;4.71;100.00;102000.72;5070546;28;20167;-73
2022/01/15 10:09:43;;;;;;;13.33;10.70;;;;;;;4.71;100.00;101991.78;5070818;28;20575;-73
2022/01/15 10:12:09;;;;;;;13.90;9.60;;;;;;;4.76;100.00;101994.59;5070715;28;20208;-73
2022/01/15 10:14:39;;;;;;;10.37;9.17;;;;;;;4.85;100.00;101997.78;5070805;28;20244;-73
2022/01/15 10:17:28;;;;;;;13.53;9.60;;;;;;;4.99;100.00;101988.38;5070425;28;20182;-73
2022/01/15 10:19:57;;;;;;;10.97;9.50;;;;;;;4.99;100.00;101980.25;5070712;28;20268;-73
2022/01/15 10:22:24;;;;;;;12.53;10.30;;;;;;;5.02;100.00;101985.19;5069206;28;20541;-73
2022/01/15 10:25:07;;;;;;;10.43;9.40;;;;;;;5.10;100.00;101979.41;5068538;28;20206;-73
2022/01/15 10:27:37;;;;;;;10.30;9.20;;;;;;;5.12;100.00;101984.59;5069208;28;20171;-73
2022/01/15 10:30:13;;;;;;;10.27;8.47;;;;;;;5.11;100.00;101989.19;5070733;28;20276;-74
2022/01/15 10:32:41;;;;;;;16.70;10.33;;;;;;;5.11;100.00;101978.34;5070574;28;20202;-74
2022/01/15 10:35:15;;;;;;;14.50;9.87;;;;;;;5.13;100.00;101986.25;5070385;28;20175;-74
2022/01/15 10:38:06;;;;;;;9.33;8.17;;;;;;;5.22;100.00;101993.78;5070251;28;20182;-80
2022/01/15 10:40:42;;;;;;;10.47;9.07;;;;;;;5.33;100.00;101994.81;5070484;28;20170;-76
2022/01/15 10:43:10;;;;;;;12.00;9.60;;;;;;;5.40;100.00;101981.97;5069318;28;20239;-73
2022/01/15 10:45:50;;;;;;;10.07;8.43;;;;;;;5.33;100.00;101982.06;5070199;28;20688;-73
2022/01/15 10:48:25;;;;;;;12.70;9.47;;;;;;;5.19;100.00;101972.56;5064108;28;20192;-73
2022/01/15 10:50:59;;;;;;;17.90;11.80;;;;;;;5.05;100.00;101960.31;5072895;28;20201;-77
2022/01/15 10:53:36;;;;;;;17.07;10.53;;;;;;;5.19;100.00;101969.84;5081740;28;20258;-73
2022/01/15 10:56:03;;;;;;;11.23;9.13;;;;;;;5.35;100.00;101966.44;5068954;28;20200;-72
2022/01/15 10:58:28;;;;;;;13.50;8.97;;;;;;;5.16;100.00;101959.50;5070305;28;20175;-73
2022/01/15 11:00:54;;;;;;;10.73;9.10;;;;;;;5.26;100.00;101954.31;5070162;28;20361;-73
2022/01/15 11:03:20;;;;;;;12.00;8.93;;;;;;;5.48;100.00;101953.66;5068899;28;20174;-73
2022/01/15 11:05:47;;;;;;;14.83;8.87;;;;;;;5.60;100.00;101951.72;5069893;28;20206;-73
2022/01/15 11:08:26;;;;;;;13.07;9.07;;;;;;;5.28;100.00;101952.16;5070119;28;20225;-73
2022/01/15 11:11:01;;;;;;;10.50;9.33;;;;;;;5.15;100.00;101946.19;5068700;28;20202;-73
2022/01/15 11:13:29;;;;;;;13.57;9.93;;;;;;;5.10;100.00;101941.50;5068680;28;20619;-73
2022/01/15 11:15:59;;;;;;;10.50;8.07;;;;;;;4.96;100.00;101946.34;5069472;28;20183;-73
2022/01/15 11:18:33;;;;;;;11.27;9.10;;;;;;;4.85;100.00;101921.97;5069741;28;20174;-72
2022/01/15 11:21:02;;;;;;;14.30;10.43;;;;;;;4.91;100.00;101931.84;5069875;28;20209;-73
2022/01/15 11:23:29;;;;;;;14.90;11.13;;;;;;;4.99;100.00;101929.59;5068253;28;20186;-73
2022/01/15 11:25:57;;;;;;;12.17;10.60;;;;;;;5.11;100.00;101932.31;5069616;28;20680;-73
2022/01/15 11:28:24;;;;;;;11.60;9.67;;;;;;;5.03;100.00;101917.22;5069709;28;20265;-73
2022/01/15 11:30:54;;;;;;;11.70;10.50;;;;;;;5.11;100.00;101920.66;5068417;28;20273;-73
2022/01/15 11:33:28;;;;;;;10.37;9.20;;;;;;;5.10;100.00;101919.00;5069571;28;20182;-73
2022/01/15 11:35:54;;;;;;;10.70;8.83;;;;;;;5.22;100.00;101915.22;5069544;28;20649;-73
2022/01/15 11:38:38;;;;;;;10.67;9.07;;;;;;;5.23;100.00;101916.84;5071891;28;20216;-73
2022/01/15 11:41:05;;;;;;;13.93;10.27;;;;;;;5.30;100.00;101914.81;5072008;28;20178;-73
2022/01/15 11:43:31;;;;;;;18.27;13.03;;;;;;;5.12;100.00;101912.28;5073117;28;20626;-73
2022/01/15 11:46:01;;;;;;;11.33;9.77;;;;;;;5.04;100.00;101905.31;5073104;28;20202;-73